createdAt,value
2018-02-15T00:02:18.101Z,15.70
2018-02-15T00:04:45.643Z,15.30
2018-02-15T00:07:13.159Z,16.50
2018-02-15T00:09:40.732Z,17.33
2018-02-15T00:12:08.216Z,16.70
2018-02-15T00:14:35.732Z,16.20
2018-02-15T00:17:03.263Z,19.87
2018-02-15T00:19:30.778Z,20.10
2018-02-15T00:21:58.281Z,18.00
2018-02-15T00:24:25.836Z,17.77
2018-02-15T00:26:53.396Z,18.97
2018-02-15T00:29:20.904Z,19.07
2018-02-15T00:31:48.437Z,16.03
2018-02-15T00:34:15.953Z,15.70
2018-02-15T00:36:43.498Z,15.80
2018-02-15T00:39:11.015Z,16.60
2018-02-15T00:41:38.567Z,15.23
2018-02-15T00:44:06.078Z,14.90
2018-02-15T00:46:33.575Z,15.30
2018-02-15T00:49:01.108Z,17.10
2018-02-15T00:51:28.646Z,15.50
2018-02-15T00:53:56.151Z,15.80
2018-02-15T00:56:23.706Z,15.20
2018-02-15T00:58:51.313Z,16.13
2018-02-15T01:01:19.587Z,16.60
2018-02-15T01:03:47.883Z,14.90
2018-02-15T01:06:15.384Z,15.60
2018-02-15T01:08:42.896Z,16.70
2018-02-15T01:11:10.434Z,16.37
2018-02-15T01:13:38.700Z,17.33
2018-02-15T01:16:06.210Z,15.37
2018-02-15T01:18:33.760Z,15.13
2018-02-15T01:21:01.303Z,18.30
2018-02-15T01:23:28.835Z,16.47
2018-02-15T01:25:56.335Z,17.23
2018-02-15T01:28:23.888Z,16.23
2018-02-15T01:30:51.395Z,18.57
2018-02-15T01:33:18.927Z,15.30
2018-02-15T01:35:47.330Z,16.00
2018-02-15T01:38:14.867Z,17.63
2018-02-15T01:40:42.393Z,18.30
2018-02-15T01:43:09.919Z,17.13
2018-02-15T01:45:38.311Z,16.60
2018-02-15T01:48:06.632Z,16.77
2018-02-15T01:50:34.803Z,17.30
2018-02-15T01:53:02.314Z,16.03
2018-02-15T01:55:30.643Z,15.60
2018-02-15T01:57:58.150Z,15.10
2018-02-15T02:00:26.415Z,16.07
2018-02-15T02:02:53.944Z,16.27
2018-02-15T02:05:21.524Z,16.43
2018-02-15T02:07:49.010Z,15.80
2018-02-15T02:10:16.735Z,15.13
2018-02-15T02:12:44.280Z,15.20
2018-02-15T02:15:11.775Z,16.13
2018-02-15T02:17:40.086Z,16.00
2018-02-15T02:20:07.590Z,15.37
2018-02-15T02:22:35.106Z,14.90
2018-02-15T02:25:02.681Z,15.83
2018-02-15T02:27:30.179Z,14.50
2018-02-15T02:29:57.748Z,17.30
2018-02-15T02:32:26.124Z,16.57
2018-02-15T02:34:54.448Z,17.47
2018-02-15T02:37:23.633Z,16.10
2018-02-15T02:39:51.937Z,16.83
2018-02-15T02:42:19.437Z,17.00
2018-02-15T02:44:47.723Z,16.60
2018-02-15T02:47:15.308Z,16.80
2018-02-15T02:49:42.831Z,16.80
2018-02-15T02:52:11.114Z,17.60
2018-02-15T02:54:39.397Z,15.73
2018-02-15T02:57:06.948Z,15.80
2018-02-15T02:59:34.452Z,15.30
2018-02-15T03:02:01.977Z,16.80
2018-02-15T03:04:29.521Z,15.23
2018-02-15T03:06:57.826Z,17.30
2018-02-15T03:09:25.354Z,17.17
2018-02-15T03:11:53.650Z,16.03
2018-02-15T03:14:21.198Z,16.90
2018-02-15T03:16:48.747Z,18.40
2018-02-15T03:19:17.055Z,16.60
2018-02-15T03:21:44.552Z,15.80
2018-02-15T03:24:12.084Z,16.17
2018-02-15T03:26:39.596Z,17.27
2018-02-15T03:29:07.947Z,15.43
2018-02-15T03:31:35.453Z,16.00
2018-02-15T03:34:02.992Z,14.73
2018-02-15T03:36:31.347Z,16.93
2018-02-15T03:38:58.859Z,16.50
2018-02-15T03:41:26.381Z,16.63
2018-02-15T03:43:54.683Z,14.50
2018-02-15T03:46:22.184Z,15.60
2018-02-15T03:48:49.737Z,17.17
2018-02-15T03:51:17.256Z,17.17
2018-02-15T03:53:45.600Z,17.77
2018-02-15T03:56:13.126Z,16.30
2018-02-15T03:58:40.677Z,15.60
2018-02-15T04:01:09.203Z,14.93
2018-02-15T04:03:36.809Z,16.57
2018-02-15T04:06:04.382Z,16.77
2018-02-15T04:08:31.917Z,16.50
2018-02-15T04:10:59.482Z,17.30
2018-02-15T04:13:27.013Z,19.00
2018-02-15T04:15:54.527Z,16.20
2018-02-15T04:18:22.050Z,17.90
2018-02-15T04:20:49.571Z,16.30
2018-02-15T04:23:17.091Z,14.37
2018-02-15T04:25:44.632Z,15.73
2018-02-15T04:28:12.159Z,15.57
2018-02-15T04:30:40.487Z,17.47
2018-02-15T04:33:08.017Z,17.60
2018-02-15T04:35:35.516Z,17.10
2018-02-15T04:38:03.046Z,18.47
2018-02-15T04:40:30.591Z,16.47
2018-02-15T04:42:58.179Z,18.73
2018-02-15T04:45:25.718Z,18.17
2018-02-15T04:47:53.243Z,18.80
2018-02-15T04:50:21.535Z,18.30
2018-02-15T04:52:49.030Z,15.97
2018-02-15T04:55:17.330Z,18.90
2018-02-15T04:57:44.846Z,15.97
2018-02-15T05:00:12.338Z,17.07
2018-02-15T05:02:39.861Z,13.93
2018-02-15T05:05:07.389Z,15.20
2018-02-15T05:07:36.471Z,16.30
2018-02-15T05:10:03.987Z,17.20
2018-02-15T05:12:31.520Z,15.73
2018-02-15T05:14:59.029Z,19.00
2018-02-15T05:17:26.587Z,18.50
2018-02-15T05:19:54.149Z,20.17
2018-02-15T05:22:21.658Z,18.87
2018-02-15T05:24:49.182Z,17.23
2018-02-15T05:27:16.728Z,18.70
2018-02-15T05:29:44.260Z,19.90
2018-02-15T05:32:12.525Z,16.80
2018-02-15T05:34:40.023Z,21.43
2018-02-15T05:37:07.551Z,17.97
2018-02-15T05:39:35.093Z,59.77
2018-02-15T05:42:02.671Z,65.03
2018-02-15T05:44:30.195Z,34.23
2018-02-15T05:46:57.713Z,20.77
2018-02-15T05:49:25.262Z,19.10
2018-02-15T05:51:52.760Z,18.00
2018-02-15T05:54:21.035Z,17.10
2018-02-15T05:56:48.559Z,18.87
2018-02-15T05:59:16.163Z,17.20
2018-02-15T06:01:43.694Z,19.10
2018-02-15T06:04:12.036Z,19.27
2018-02-15T06:06:39.594Z,18.37
2018-02-15T06:09:07.120Z,18.67
2018-02-15T06:11:34.646Z,18.80
2018-02-15T06:14:02.987Z,20.27
2018-02-15T06:16:30.529Z,82.20
2018-02-15T06:18:58.054Z,41.97
2018-02-15T06:21:26.319Z,21.57
2018-02-15T06:23:53.852Z,19.70
2018-02-15T06:26:22.278Z,19.73
2018-02-15T06:28:49.781Z,19.47
2018-02-15T06:31:17.328Z,18.50
2018-02-15T06:33:44.856Z,20.47
2018-02-15T06:36:12.376Z,20.07
2018-02-15T06:38:39.908Z,18.90
2018-02-15T06:41:07.441Z,19.70
2018-02-15T06:43:35.085Z,20.37
2018-02-15T06:46:02.587Z,19.80
2018-02-15T06:48:30.151Z,20.13
2018-02-15T06:50:57.705Z,19.20
2018-02-15T06:53:25.300Z,82.47
2018-02-15T06:55:53.599Z,34.80
2018-02-15T06:58:21.118Z,21.33
2018-02-15T07:00:48.841Z,20.40
2018-02-15T07:03:16.375Z,18.23
2018-02-15T07:05:43.928Z,20.70
2018-02-15T07:08:11.582Z,23.57
2018-02-15T07:10:39.909Z,25.70
2018-02-15T07:13:07.429Z,21.27
2018-02-15T07:15:35.725Z,23.20
2018-02-15T07:18:04.177Z,26.97
2018-02-15T07:20:32.467Z,23.53
2018-02-15T07:23:00.027Z,22.10
2018-02-15T07:25:27.559Z,23.40
2018-02-15T07:27:55.106Z,21.97
2018-02-15T07:30:22.624Z,18.27
2018-02-15T07:32:50.156Z,19.80
2018-02-15T07:35:17.707Z,42.70
2018-02-15T07:37:45.982Z,21.83
2018-02-15T07:40:14.273Z,17.80
2018-02-15T07:42:42.752Z,18.60
2018-02-15T07:45:10.298Z,18.53
2018-02-15T07:47:38.564Z,16.40
2018-02-15T07:50:06.119Z,15.67
2018-02-15T07:52:34.404Z,15.33
2018-02-15T07:55:02.695Z,14.73
2018-02-15T07:57:30.256Z,16.30
2018-02-15T07:59:57.841Z,15.67
2018-02-15T08:02:25.341Z,18.57
2018-02-15T08:04:52.926Z,22.90
2018-02-15T08:07:20.451Z,16.80
2018-02-15T08:09:47.977Z,17.10
2018-02-15T08:12:15.516Z,17.83
2018-02-15T08:14:43.055Z,17.90
2018-02-15T08:17:10.556Z,17.27
2018-02-15T08:19:38.088Z,16.97
2018-02-15T08:22:05.627Z,22.47
2018-02-15T08:24:33.900Z,20.47
2018-02-15T08:27:02.201Z,20.90
2018-02-15T08:29:29.702Z,18.97
2018-02-15T08:31:57.231Z,18.60
2018-02-15T08:34:24.736Z,33.67
2018-02-15T08:36:52.246Z,34.40
2018-02-15T08:39:19.780Z,21.30
2018-02-15T08:41:47.307Z,18.53
2018-02-15T08:44:15.147Z,17.87
2018-02-15T08:46:42.678Z,18.40
2018-02-15T08:49:10.207Z,17.13
2018-02-15T08:51:38.485Z,16.30
2018-02-15T08:54:06.799Z,18.43
2018-02-15T08:56:34.319Z,18.33
2018-02-15T08:59:02.611Z,16.43
2018-02-15T09:01:30.181Z,17.33
2018-02-15T09:03:57.706Z,18.70
2018-02-15T09:06:25.229Z,17.43
2018-02-15T09:08:52.769Z,16.77
2018-02-15T09:11:20.362Z,17.80
2018-02-15T09:13:47.890Z,17.70
2018-02-15T09:16:15.407Z,16.33
2018-02-15T09:18:43.715Z,15.73
2018-02-15T09:21:11.251Z,16.40
2018-02-15T09:23:39.522Z,17.43
2018-02-15T09:26:07.799Z,17.20
2018-02-15T09:28:36.088Z,16.43
2018-02-15T09:31:03.591Z,17.03
2018-02-15T09:33:31.117Z,18.20
2018-02-15T09:35:58.636Z,15.17
2018-02-15T09:38:26.905Z,15.07
2018-02-15T09:40:54.480Z,16.37
2018-02-15T09:43:22.739Z,17.10
2018-02-15T09:45:50.263Z,16.07
2018-02-15T09:48:17.758Z,15.30
2018-02-15T09:50:45.251Z,15.37
2018-02-15T09:53:12.774Z,16.03
2018-02-15T09:55:40.272Z,15.97
2018-02-15T09:58:07.823Z,16.20
2018-02-15T10:00:35.331Z,16.30
2018-02-15T10:03:02.816Z,16.77
2018-02-15T10:05:31.143Z,14.70
2018-02-15T10:07:58.645Z,24.90
2018-02-15T10:10:26.172Z,17.03
2018-02-15T10:12:53.688Z,15.13
2018-02-15T10:15:21.180Z,15.50
2018-02-15T10:17:48.709Z,15.47
2018-02-15T10:20:16.226Z,15.13
2018-02-15T10:22:43.775Z,13.83
2018-02-15T10:25:11.319Z,18.23
2018-02-15T10:27:38.836Z,15.90
2018-02-15T10:30:07.115Z,14.77
2018-02-15T10:32:34.619Z,15.73
2018-02-15T10:35:02.108Z,15.50
2018-02-15T10:37:30.390Z,14.77
2018-02-15T10:39:58.740Z,13.90
2018-02-15T10:42:26.224Z,12.40
2018-02-15T10:44:54.571Z,14.00
2018-02-15T10:47:22.057Z,12.00
2018-02-15T10:49:50.324Z,13.23
2018-02-15T10:52:18.630Z,41.70
2018-02-15T10:54:46.119Z,22.37
2018-02-15T10:57:13.655Z,16.00
2018-02-15T10:59:41.163Z,11.00
2018-02-15T11:02:14.415Z,11.50
2018-02-15T11:04:47.566Z,10.70
2018-02-15T11:07:15.821Z,10.30
2018-02-15T11:09:43.335Z,9.43
2018-02-15T11:12:10.822Z,10.20
2018-02-15T11:14:39.110Z,9.33
2018-02-15T11:17:06.612Z,9.90
2018-02-15T11:19:34.133Z,11.57
2018-02-15T11:22:01.621Z,13.37
2018-02-15T11:24:29.131Z,13.23
2018-02-15T11:26:56.649Z,14.27
2018-02-15T11:29:24.176Z,17.53
2018-02-15T11:31:52.504Z,14.00
2018-02-15T11:34:20.795Z,13.80
2018-02-15T11:36:48.287Z,12.67
2018-02-15T11:39:16.580Z,38.60
2018-02-15T11:41:44.874Z,19.83
2018-02-15T11:44:12.670Z,16.07
2018-02-15T11:46:40.287Z,16.10
2018-02-15T11:49:07.787Z,15.90
2018-02-15T11:51:35.307Z,13.10
2018-02-15T11:54:02.804Z,14.40
2018-02-15T11:56:30.368Z,13.80
2018-02-15T11:58:57.903Z,14.23
2018-02-15T12:01:25.394Z,12.87
2018-02-15T12:03:52.923Z,14.17
2018-02-15T12:06:20.419Z,17.97
2018-02-15T12:08:47.926Z,16.50
2018-02-15T12:11:15.466Z,13.97
2018-02-15T12:13:43.003Z,11.60
2018-02-15T12:16:11.299Z,13.60
2018-02-15T12:18:39.534Z,13.87
2018-02-15T12:21:07.100Z,13.33
2018-02-15T12:23:34.613Z,14.27
2018-02-15T12:26:02.180Z,13.20
2018-02-15T12:28:29.728Z,15.00
2018-02-15T12:30:57.239Z,13.80
2018-02-15T12:33:24.731Z,13.60
2018-02-15T12:35:52.259Z,13.83
2018-02-15T12:38:20.562Z,15.87
2018-02-15T12:40:48.079Z,13.57
2018-02-15T12:43:15.621Z,15.17
2018-02-15T12:45:43.209Z,14.40
2018-02-15T12:48:11.532Z,14.77
2018-02-15T12:50:39.041Z,14.63
2018-02-15T12:53:06.576Z,15.00
2018-02-15T12:55:34.109Z,13.97
2018-02-15T12:58:01.653Z,14.20
2018-02-15T13:00:29.195Z,13.00
2018-02-15T13:02:57.469Z,13.00
2018-02-15T13:05:25.780Z,12.80
2018-02-15T13:07:53.305Z,12.17
2018-02-15T13:10:21.619Z,12.40
2018-02-15T13:13:00.949Z,11.97
2018-02-15T13:15:40.179Z,12.53
2018-02-15T13:18:07.681Z,12.07
2018-02-15T13:20:36.640Z,12.50
2018-02-15T13:23:04.179Z,12.20
2018-02-15T13:25:31.682Z,11.43
2018-02-15T13:28:10.959Z,12.57
2018-02-15T13:30:39.227Z,11.67
2018-02-15T13:33:06.798Z,13.77
2018-02-15T13:35:34.291Z,11.93
2018-02-15T13:38:01.796Z,12.07
2018-02-15T13:40:30.109Z,11.83
2018-02-15T13:42:57.635Z,11.30
2018-02-15T13:45:25.931Z,10.57
2018-02-15T13:47:53.472Z,11.07
2018-02-15T13:50:20.997Z,10.17
2018-02-15T13:52:48.537Z,10.10
2018-02-15T13:55:16.065Z,11.10
2018-02-15T13:57:43.936Z,10.57
2018-02-15T14:00:11.459Z,11.53
2018-02-15T14:02:39.754Z,11.47
2018-02-15T14:05:07.283Z,11.00
2018-02-15T14:07:34.812Z,11.30
2018-02-15T14:10:02.323Z,12.30
2018-02-15T14:12:29.869Z,12.83
2018-02-15T14:14:58.154Z,11.20
2018-02-15T14:17:26.421Z,13.07
2018-02-15T14:19:53.967Z,12.17
2018-02-15T14:22:22.338Z,12.03
2018-02-15T14:24:49.855Z,13.13
2018-02-15T14:27:17.393Z,13.20
2018-02-15T14:29:44.928Z,15.30
2018-02-15T14:32:12.431Z,13.30
2018-02-15T14:34:39.950Z,13.63
2018-02-15T14:37:08.219Z,13.03
2018-02-15T14:39:35.769Z,12.07
2018-02-15T14:42:03.321Z,14.03
2018-02-15T14:44:30.823Z,14.67
2018-02-15T14:46:58.348Z,12.80
2018-02-15T14:49:25.896Z,14.80
2018-02-15T14:51:53.409Z,13.50
2018-02-15T14:54:20.916Z,15.30
2018-02-15T14:56:48.471Z,15.20
2018-02-15T14:59:15.997Z,19.03
2018-02-15T15:01:43.516Z,20.70
2018-02-15T15:04:11.812Z,18.97
2018-02-15T15:06:40.232Z,21.50
2018-02-15T15:09:07.736Z,16.07
2018-02-15T15:11:36.420Z,14.37
2018-02-15T15:14:04.761Z,13.80
2018-02-15T15:16:32.268Z,14.40
2018-02-15T15:18:59.831Z,13.40
2018-02-15T15:21:27.333Z,16.70
2018-02-15T15:23:54.890Z,14.87
2018-02-15T15:26:22.467Z,15.00
2018-02-15T15:28:49.975Z,16.13
2018-02-15T15:31:17.529Z,14.53
2018-02-15T15:33:45.025Z,14.57
2018-02-15T15:36:12.848Z,15.07
2018-02-15T15:38:40.573Z,14.60
2018-02-15T15:41:08.084Z,15.10
2018-02-15T15:43:35.648Z,14.07
2018-02-15T15:46:03.223Z,14.33
2018-02-15T15:48:30.768Z,14.37
2018-02-15T15:50:58.283Z,15.07
2018-02-15T15:53:28.120Z,14.27
2018-02-15T15:55:55.645Z,14.57
2018-02-15T15:58:23.927Z,14.90
2018-02-15T16:00:52.231Z,15.50
2018-02-15T16:03:19.739Z,15.90
2018-02-15T16:05:47.258Z,14.30
2018-02-15T16:08:14.803Z,14.83
2018-02-15T16:10:42.387Z,15.77
2018-02-15T16:13:09.908Z,17.30
2018-02-15T16:15:37.545Z,40.20
2018-02-15T16:18:05.048Z,34.40
2018-02-15T16:20:32.552Z,26.43
2018-02-15T16:23:00.105Z,21.40
2018-02-15T16:25:27.630Z,18.60
2018-02-15T16:27:55.177Z,17.23
2018-02-15T16:30:23.197Z,16.97
2018-02-15T16:32:50.724Z,17.27
2018-02-15T16:35:18.537Z,17.93
2018-02-15T16:37:46.035Z,18.07
2018-02-15T16:40:13.567Z,17.07
2018-02-15T16:42:41.155Z,19.23
2018-02-15T16:45:08.686Z,30.17
2018-02-15T16:47:36.270Z,33.83
2018-02-15T16:50:03.778Z,39.23
2018-02-15T16:52:31.304Z,29.57
2018-02-15T16:54:59.065Z,31.30
2018-02-15T16:57:28.257Z,34.43
2018-02-15T16:59:56.254Z,34.20
2018-02-15T17:02:23.846Z,36.80
2018-02-15T17:04:51.388Z,33.70
2018-02-15T17:07:18.896Z,33.47
2018-02-15T17:09:46.400Z,34.13
2018-02-15T17:12:13.918Z,33.07
2018-02-15T17:14:41.446Z,29.70
2018-02-15T17:17:08.984Z,32.43
2018-02-15T17:19:37.376Z,31.63
2018-02-15T17:22:05.052Z,27.60
2018-02-15T17:24:32.539Z,28.50
2018-02-15T17:40:51.616Z,31.33
2018-02-15T17:43:19.707Z,30.43
2018-02-15T17:45:48.091Z,29.97
2018-02-15T17:48:16.401Z,29.20
2018-02-15T17:50:43.899Z,32.00
2018-02-15T17:53:11.464Z,31.87
2018-02-15T17:55:38.973Z,28.93
2018-02-15T17:58:06.475Z,33.33
2018-02-15T18:00:34.031Z,30.20
2018-02-15T18:03:01.580Z,29.60
2018-02-15T18:05:29.080Z,32.47
2018-02-15T18:07:57.393Z,36.07
2018-02-15T18:10:24.927Z,32.60
2018-02-15T18:12:52.520Z,34.80
2018-02-15T18:15:20.107Z,34.70
2018-02-15T18:17:47.667Z,29.70
2018-02-15T18:20:15.264Z,120.33
2018-02-15T18:22:43.543Z,43.03
2018-02-15T18:25:11.075Z,34.67
2018-02-15T18:27:38.624Z,37.13
2018-02-15T18:30:06.119Z,37.50
2018-02-15T18:32:33.892Z,37.10
2018-02-15T18:35:01.467Z,39.57
2018-02-15T18:37:28.998Z,36.40
2018-02-15T18:39:57.557Z,40.90
2018-02-15T18:42:25.836Z,41.67
2018-02-15T18:44:54.099Z,43.17
2018-02-15T18:47:21.672Z,36.63
2018-02-15T18:49:50.795Z,39.63
2018-02-15T18:52:18.305Z,36.10
2018-02-15T18:54:45.874Z,35.40
2018-02-15T18:57:13.367Z,36.47
2018-02-15T18:59:40.913Z,39.10
2018-02-15T19:02:08.435Z,41.97
2018-02-15T19:04:36.184Z,42.10
2018-02-15T19:07:03.684Z,39.43
2018-02-15T19:09:31.997Z,35.10
2018-02-15T19:11:59.515Z,39.10
2018-02-15T19:14:27.906Z,41.17
2018-02-15T19:16:56.169Z,43.60
2018-02-15T19:19:24.449Z,40.30
2018-02-15T19:21:56.820Z,41.50
2018-02-15T19:24:25.120Z,44.30
2018-02-15T19:26:52.631Z,37.97
2018-02-15T19:29:20.149Z,40.70
2018-02-15T19:31:47.648Z,46.23
2018-02-15T19:34:15.351Z,37.90
2018-02-15T19:36:42.862Z,40.97
2018-02-15T19:39:10.364Z,36.63
2018-02-15T19:41:38.672Z,37.40
2018-02-15T19:44:06.199Z,37.57
2018-02-15T19:46:34.463Z,30.27
2018-02-15T19:49:02.779Z,62.53
2018-02-15T19:51:30.280Z,61.97
2018-02-15T19:53:58.582Z,44.47
2018-02-15T19:56:26.920Z,35.57
2018-02-15T19:58:54.442Z,32.53
2018-02-15T20:01:22.016Z,34.30
2018-02-15T20:03:50.308Z,34.30
2018-02-15T20:06:17.805Z,35.83
2018-02-15T20:08:46.131Z,37.93
2018-02-15T20:11:13.745Z,31.10
2018-02-15T20:13:42.028Z,34.23
2018-02-15T20:16:09.576Z,33.67
2018-02-15T20:18:37.851Z,35.90
2018-02-15T20:21:06.174Z,30.87
2018-02-15T20:23:33.685Z,27.17
2018-02-15T20:26:07.549Z,163.30
2018-02-15T20:28:35.056Z,41.47
2018-02-15T20:31:03.467Z,33.23
2018-02-15T20:33:31.021Z,34.00
2018-02-15T20:35:58.765Z,37.20
2018-02-15T20:38:31.914Z,38.03
2018-02-15T20:40:59.420Z,38.90
2018-02-15T20:43:26.951Z,41.20
2018-02-15T20:45:55.248Z,40.03
2018-02-15T20:48:22.816Z,43.47
2018-02-15T20:50:55.915Z,42.33
2018-02-15T20:53:29.068Z,41.10
2018-02-15T20:55:57.360Z,40.67
2018-02-15T20:58:25.628Z,41.67
2018-02-15T21:00:53.947Z,42.30
2018-02-15T21:03:21.464Z,42.43
2018-02-15T21:05:48.985Z,39.73
2018-02-15T21:08:17.465Z,40.93
2018-02-15T21:10:44.966Z,41.00
2018-02-15T21:13:13.915Z,39.60
2018-02-15T21:15:41.440Z,31.20
2018-02-15T21:18:08.996Z,31.87
2018-02-15T21:20:36.506Z,34.57
2018-02-15T21:23:04.065Z,39.60
2018-02-15T21:25:31.617Z,33.70
2018-02-15T21:27:59.114Z,33.17
2018-02-15T21:30:26.620Z,35.50
2018-02-15T21:32:54.561Z,32.60
2018-02-15T21:35:22.078Z,31.93
2018-02-15T21:37:50.378Z,34.90
2018-02-15T21:40:18.028Z,38.13
2018-02-15T21:42:46.316Z,35.93
2018-02-15T21:45:13.837Z,33.87
2018-02-15T21:47:41.406Z,34.43
2018-02-15T21:50:08.897Z,31.27
2018-02-15T21:52:36.399Z,34.93
2018-02-15T21:55:04.686Z,33.50
2018-02-15T21:57:32.190Z,31.50
2018-02-15T21:59:59.684Z,32.67
2018-02-15T22:02:27.326Z,33.17
2018-02-15T22:04:54.827Z,31.93
2018-02-15T22:07:22.316Z,32.83
2018-02-15T22:09:49.890Z,32.63
2018-02-15T22:12:17.396Z,30.83
2018-02-15T22:14:45.151Z,32.47
2018-02-15T22:17:12.743Z,34.20
2018-02-15T22:19:41.048Z,33.80
2018-02-15T22:22:08.573Z,32.50
2018-02-15T22:24:37.009Z,30.70
2018-02-15T22:27:04.520Z,30.20
2018-02-15T22:29:32.014Z,33.20
2018-02-15T22:31:59.558Z,30.23
2018-02-15T22:34:27.075Z,33.63
2018-02-15T22:36:55.400Z,31.60
2018-02-15T22:39:23.023Z,31.43
2018-02-15T22:41:51.292Z,28.67
2018-02-15T22:44:19.576Z,34.17
2018-02-15T22:46:47.906Z,32.50
2018-02-15T22:49:15.410Z,28.53
2018-02-15T22:51:43.675Z,35.30
2018-02-15T22:54:12.016Z,31.20
2018-02-15T22:56:39.565Z,30.77
2018-02-15T22:59:07.069Z,34.80
2018-02-15T23:01:35.404Z,36.77
2018-02-15T23:04:02.916Z,34.73
2018-02-15T23:06:31.182Z,30.33
2018-02-15T23:08:59.515Z,32.10
2018-02-15T23:11:27.019Z,35.93
2018-02-15T23:13:55.355Z,35.73
2018-02-15T23:16:22.904Z,34.80
2018-02-15T23:18:50.407Z,37.87
2018-02-15T23:21:17.909Z,39.30
2018-02-15T23:23:45.465Z,38.20
2018-02-15T23:26:12.968Z,38.57
2018-02-15T23:28:40.486Z,39.13
2018-02-15T23:31:08.158Z,42.40
2018-02-15T23:33:35.759Z,40.87
2018-02-15T23:36:03.254Z,39.70
2018-02-15T23:38:30.863Z,43.20
2018-02-15T23:40:58.543Z,41.67
2018-02-15T23:43:26.047Z,43.63
2018-02-15T23:45:53.594Z,38.67
2018-02-15T23:48:21.095Z,36.90
2018-02-15T23:50:48.597Z,35.20
2018-02-15T23:53:16.686Z,34.10
2018-02-15T23:55:44.180Z,31.00
2018-02-15T23:58:12.413Z,30.20
